sensor_id;sensor_type;location;lat;lon;timestamp;temperature;humidity
3454;DHT22;1741;51.294;8.608;2024-01-11T00:01:13;-9.80;99.90
3454;DHT22;1741;51.294;8.608;2024-01-11T00:03:42;-9.70;99.90
3454;DHT22;1741;51.294;8.608;2024-01-11T00:06:09;-9.90;99.90
3454;DHT22;1741;51.294;8.608;2024-01-11T00:08:37;-9.80;99.90
3454;DHT22;1741;51.294;8.608;2024-01-11T00:11:04;-9.90;99.90
3454;DHT22;1741;51.294;8.608;2024-01-11T00:13:32;-10.00;99.90
3454;DHT22;1741;51.294;8.608;2024-01-11T00:15:59;-10.00;99.90
3454;DHT22;1741;51.294;8.608;2024-01-11T00:18:27;-10.10;99.90
3454;DHT22;1741;51.294;8.608;2024-01-11T00:20:54;-10.10;99.90
3454;DHT22;1741;51.294;8.608;2024-01-11T00:23:21;-9.90;99.90
3454;DHT22;1741;51.294;8.608;2024-01-11T00:25:49;-9.90;99.90
3454;DHT22;1741;51.294;8.608;2024-01-11T00:28:18;-10.00;99.90
3454;DHT22;1741;51.294;8.608;2024-01-11T00:30:44;-10.10;99.90
3454;DHT22;1741;51.294;8.608;2024-01-11T00:33:12;-9.90;99.90
3454;DHT22;1741;51.294;8.608;2024-01-11T00:35:39;-9.90;99.90
3454;DHT22;1741;51.294;8.608;2024-01-11T00:38:07;-10.00;99.90
3454;DHT22;1741;51.294;8.608;2024-01-11T00:40:34;-10.10;99.90
3454;DHT22;1741;51.294;8.608;2024-01-11T00:43:02;-10.00;99.90
3454;DHT22;1741;51.294;8.608;2024-01-11T00:45:30;-10.10;99.90
3454;DHT22;1741;51.294;8.608;2024-01-11T00:47:57;-10.10;99.90
3454;DHT22;1741;51.294;8.608;2024-01-11T00:50:25;-10.10;99.90
3454;DHT22;1741;51.294;8.608;2024-01-11T00:52:53;-10.10;99.90
3454;DHT22;1741;51.294;8.608;2024-01-11T00:55:20;-10.00;99.90
3454;DHT22;1741;51.294;8.608;2024-01-11T00:57:47;-9.90;99.90
3454;DHT22;1741;51.294;8.608;2024-01-11T01:00:14;-9.90;99.90
3454;DHT22;1741;51.294;8.608;2024-01-11T01:02:42;-10.00;99.90
3454;DHT22;1741;51.294;8.608;2024-01-11T01:05:09;-10.10;99.90
3454;DHT22;1741;51.294;8.608;2024-01-11T01:07:36;-10.00;99.90
3454;DHT22;1741;51.294;8.608;2024-01-11T01:10:05;-9.80;99.90
3454;DHT22;1741;51.294;8.608;2024-01-11T01:12:35;-9.80;99.90
3454;DHT22;1741;51.294;8.608;2024-01-11T01:15:03;-10.00;99.90
3454;DHT22;1741;51.294;8.608;2024-01-11T01:17:31;-10.00;99.90
3454;DHT22;1741;51.294;8.608;2024-01-11T01:20:00;-10.20;99.90
3454;DHT22;1741;51.294;8.608;2024-01-11T01:22:27;-10.20;99.90
3454;DHT22;1741;51.294;8.608;2024-01-11T01:24:54;-10.40;99.90
3454;DHT22;1741;51.294;8.608;2024-01-11T01:27:22;-10.50;99.90
3454;DHT22;1741;51.294;8.608;2024-01-11T01:29:49;-10.50;99.90
3454;DHT22;1741;51.294;8.608;2024-01-11T01:32:15;-10.60;99.90
3454;DHT22;1741;51.294;8.608;2024-01-11T01:34:43;-10.50;99.90
3454;DHT22;1741;51.294;8.608;2024-01-11T01:37:14;-10.40;99.90
3454;DHT22;1741;51.294;8.608;2024-01-11T01:39:50;-10.30;99.90
3454;DHT22;1741;51.294;8.608;2024-01-11T01:42:17;-10.40;99.90
3454;DHT22;1741;51.294;8.608;2024-01-11T01:44:44;-10.60;99.90
3454;DHT22;1741;51.294;8.608;2024-01-11T01:47:11;-10.60;99.90
3454;DHT22;1741;51.294;8.608;2024-01-11T01:49:39;-10.60;99.90
3454;DHT22;1741;51.294;8.608;2024-01-11T01:52:08;-10.70;99.90
3454;DHT22;1741;51.294;8.608;2024-01-11T01:54:36;-10.60;99.90
3454;DHT22;1741;51.294;8.608;2024-01-11T01:57:04;-10.70;99.90
3454;DHT22;1741;51.294;8.608;2024-01-11T01:59:31;-10.50;99.90
3454;DHT22;1741;51.294;8.608;2024-01-11T02:02:00;-10.30;99.90
3454;DHT22;1741;51.294;8.608;2024-01-11T02:04:29;-10.40;99.90
3454;DHT22;1741;51.294;8.608;2024-01-11T02:06:57;-10.50;99.90
3454;DHT22;1741;51.294;8.608;2024-01-11T02:09:24;-10.60;99.90
3454;DHT22;1741;51.294;8.608;2024-01-11T02:11:54;-10.70;99.90
3454;DHT22;1741;51.294;8.608;2024-01-11T02:14:21;-10.80;99.90
3454;DHT22;1741;51.294;8.608;2024-01-11T02:16:48;-10.80;99.90
3454;DHT22;1741;51.294;8.608;2024-01-11T02:19:18;-10.80;99.90
3454;DHT22;1741;51.294;8.608;2024-01-11T02:21:48;-10.80;99.90
3454;DHT22;1741;51.294;8.608;2024-01-11T02:24:16;-10.70;99.90
3454;DHT22;1741;51.294;8.608;2024-01-11T02:27:04;-10.70;99.90
3454;DHT22;1741;51.294;8.608;2024-01-11T02:29:32;-10.80;99.90
3454;DHT22;1741;51.294;8.608;2024-01-11T02:32:00;-10.80;99.90
3454;DHT22;1741;51.294;8.608;2024-01-11T02:34:29;-10.80;99.90
3454;DHT22;1741;51.294;8.608;2024-01-11T02:36:57;-10.70;99.90
3454;DHT22;1741;51.294;8.608;2024-01-11T02:39:25;-10.70;99.90
3454;DHT22;1741;51.294;8.608;2024-01-11T02:41:56;-10.70;99.90
3454;DHT22;1741;51.294;8.608;2024-01-11T02:44:24;-10.80;99.90
3454;DHT22;1741;51.294;8.608;2024-01-11T02:46:52;-10.80;99.90
3454;DHT22;1741;51.294;8.608;2024-01-11T02:49:19;-10.80;99.90
3454;DHT22;1741;51.294;8.608;2024-01-11T02:51:46;-10.80;99.90
3454;DHT22;1741;51.294;8.608;2024-01-11T02:54:14;-10.90;99.90
3454;DHT22;1741;51.294;8.608;2024-01-11T02:56:43;-10.80;99.90
3454;DHT22;1741;51.294;8.608;2024-01-11T02:59:11;-10.70;99.90
3454;DHT22;1741;51.294;8.608;2024-01-11T03:01:38;-10.50;99.90
3454;DHT22;1741;51.294;8.608;2024-01-11T03:04:05;-10.40;99.90
3454;DHT22;1741;51.294;8.608;2024-01-11T03:06:33;-10.40;99.90
3454;DHT22;1741;51.294;8.608;2024-01-11T03:09:02;-10.50;99.90
3454;DHT22;1741;51.294;8.608;2024-01-11T03:11:29;-10.50;99.90
3454;DHT22;1741;51.294;8.608;2024-01-11T03:13:59;-10.60;99.90
3454;DHT22;1741;51.294;8.608;2024-01-11T03:16:26;-10.60;99.90
3454;DHT22;1741;51.294;8.608;2024-01-11T03:18:53;-10.60;99.90
3454;DHT22;1741;51.294;8.608;2024-01-11T03:21:20;-10.50;99.90
3454;DHT22;1741;51.294;8.608;2024-01-11T03:23:47;-10.60;99.90
3454;DHT22;1741;51.294;8.608;2024-01-11T03:26:16;-10.70;99.90
3454;DHT22;1741;51.294;8.608;2024-01-11T03:28:44;-10.80;99.90
3454;DHT22;1741;51.294;8.608;2024-01-11T03:31:11;-10.90;99.90
3454;DHT22;1741;51.294;8.608;2024-01-11T03:33:39;-10.90;99.90
3454;DHT22;1741;51.294;8.608;2024-01-11T03:36:07;-10.90;99.90
3454;DHT22;1741;51.294;8.608;2024-01-11T03:38:36;-11.00;99.90
3454;DHT22;1741;51.294;8.608;2024-01-11T03:41:07;-11.00;99.90
3454;DHT22;1741;51.294;8.608;2024-01-11T03:43:39;-11.10;99.90
3454;DHT22;1741;51.294;8.608;2024-01-11T03:46:06;-11.10;99.90
3454;DHT22;1741;51.294;8.608;2024-01-11T03:48:33;-11.00;99.90
3454;DHT22;1741;51.294;8.608;2024-01-11T03:51:05;-11.00;99.90
3454;DHT22;1741;51.294;8.608;2024-01-11T03:53:36;-11.00;99.90
3454;DHT22;1741;51.294;8.608;2024-01-11T03:56:04;-10.90;99.90
3454;DHT22;1741;51.294;8.608;2024-01-11T03:58:31;-10.80;99.90
3454;DHT22;1741;51.294;8.608;2024-01-11T04:01:00;-10.80;99.90
3454;DHT22;1741;51.294;8.608;2024-01-11T04:03:27;-10.80;99.90
3454;DHT22;1741;51.294;8.608;2024-01-11T04:05:54;-10.90;99.90
3454;DHT22;1741;51.294;8.608;2024-01-11T04:08:22;-11.00;99.90
3454;DHT22;1741;51.294;8.608;2024-01-11T04:10:49;-11.00;99.90
3454;DHT22;1741;51.294;8.608;2024-01-11T04:13:17;-11.00;99.90
3454;DHT22;1741;51.294;8.608;2024-01-11T04:15:44;-11.00;99.90
3454;DHT22;1741;51.294;8.608;2024-01-11T04:18:11;-11.00;99.90
3454;DHT22;1741;51.294;8.608;2024-01-11T04:20:38;-11.00;99.90
3454;DHT22;1741;51.294;8.608;2024-01-11T04:23:05;-11.00;99.90
3454;DHT22;1741;51.294;8.608;2024-01-11T04:25:32;-11.00;99.90
3454;DHT22;1741;51.294;8.608;2024-01-11T04:28:01;-10.90;99.90
3454;DHT22;1741;51.294;8.608;2024-01-11T04:30:32;-10.90;99.90
3454;DHT22;1741;51.294;8.608;2024-01-11T04:33:00;-10.80;99.90
3454;DHT22;1741;51.294;8.608;2024-01-11T04:35:28;-10.80;99.90
3454;DHT22;1741;51.294;8.608;2024-01-11T04:37:56;-10.90;99.90
3454;DHT22;1741;51.294;8.608;2024-01-11T04:40:24;-10.90;99.90
3454;DHT22;1741;51.294;8.608;2024-01-11T04:42:51;-10.90;99.90
3454;DHT22;1741;51.294;8.608;2024-01-11T04:45:18;-11.00;99.90
3454;DHT22;1741;51.294;8.608;2024-01-11T04:47:50;-11.00;99.90
3454;DHT22;1741;51.294;8.608;2024-01-11T04:50:18;-10.90;99.90
3454;DHT22;1741;51.294;8.608;2024-01-11T04:52:48;-11.00;99.90
3454;DHT22;1741;51.294;8.608;2024-01-11T04:55:15;-10.90;99.90
3454;DHT22;1741;51.294;8.608;2024-01-11T04:57:43;-10.90;99.90
3454;DHT22;1741;51.294;8.608;2024-01-11T05:00:10;-10.90;99.90
3454;DHT22;1741;51.294;8.608;2024-01-11T05:02:37;-10.90;99.90
3454;DHT22;1741;51.294;8.608;2024-01-11T05:05:06;-10.90;99.90
3454;DHT22;1741;51.294;8.608;2024-01-11T05:07:33;-10.90;99.90
3454;DHT22;1741;51.294;8.608;2024-01-11T05:10:01;-11.00;99.90
3454;DHT22;1741;51.294;8.608;2024-01-11T05:12:28;-11.00;99.90
3454;DHT22;1741;51.294;8.608;2024-01-11T05:14:55;-11.10;99.90
3454;DHT22;1741;51.294;8.608;2024-01-11T05:17:22;-11.10;99.90
3454;DHT22;1741;51.294;8.608;2024-01-11T05:19:50;-11.10;99.90
3454;DHT22;1741;51.294;8.608;2024-01-11T05:22:17;-11.10;99.90
3454;DHT22;1741;51.294;8.608;2024-01-11T05:24:44;-11.00;99.90
3454;DHT22;1741;51.294;8.608;2024-01-11T05:27:12;-11.00;99.90
3454;DHT22;1741;51.294;8.608;2024-01-11T05:29:39;-11.00;99.90
3454;DHT22;1741;51.294;8.608;2024-01-11T05:32:06;-11.00;99.90
3454;DHT22;1741;51.294;8.608;2024-01-11T05:34:33;-11.00;99.90
3454;DHT22;1741;51.294;8.608;2024-01-11T05:37:00;-11.00;99.90
3454;DHT22;1741;51.294;8.608;2024-01-11T05:39:27;-10.90;99.90
3454;DHT22;1741;51.294;8.608;2024-01-11T05:41:55;-10.90;99.90
3454;DHT22;1741;51.294;8.608;2024-01-11T05:44:22;-10.70;99.90
3454;DHT22;1741;51.294;8.608;2024-01-11T05:46:49;-10.60;99.90
3454;DHT22;1741;51.294;8.608;2024-01-11T05:49:18;-10.70;99.90
3454;DHT22;1741;51.294;8.608;2024-01-11T05:51:46;-10.80;99.90
3454;DHT22;1741;51.294;8.608;2024-01-11T05:54:13;-10.70;99.90
3454;DHT22;1741;51.294;8.608;2024-01-11T05:56:40;-10.70;99.90
3454;DHT22;1741;51.294;8.608;2024-01-11T05:59:07;-10.80;99.90
3454;DHT22;1741;51.294;8.608;2024-01-11T06:01:41;-10.70;99.90
3454;DHT22;1741;51.294;8.608;2024-01-11T06:04:09;-10.70;99.90
3454;DHT22;1741;51.294;8.608;2024-01-11T06:06:36;-10.90;99.90
3454;DHT22;1741;51.294;8.608;2024-01-11T06:09:03;-10.90;99.90
3454;DHT22;1741;51.294;8.608;2024-01-11T06:11:31;-11.00;99.90
3454;DHT22;1741;51.294;8.608;2024-01-11T06:13:59;-11.00;99.90
3454;DHT22;1741;51.294;8.608;2024-01-11T06:16:28;-10.90;99.90
3454;DHT22;1741;51.294;8.608;2024-01-11T06:18:55;-10.80;99.90
3454;DHT22;1741;51.294;8.608;2024-01-11T06:21:22;-10.60;99.90
3454;DHT22;1741;51.294;8.608;2024-01-11T06:23:49;-10.50;99.90
3454;DHT22;1741;51.294;8.608;2024-01-11T06:26:16;-10.50;99.90
3454;DHT22;1741;51.294;8.608;2024-01-11T06:28:45;-10.50;99.90
3454;DHT22;1741;51.294;8.608;2024-01-11T06:31:13;-10.50;99.90
3454;DHT22;1741;51.294;8.608;2024-01-11T06:33:43;-10.50;99.90
3454;DHT22;1741;51.294;8.608;2024-01-11T06:36:16;-10.50;99.90
3454;DHT22;1741;51.294;8.608;2024-01-11T06:38:44;-10.50;99.90
3454;DHT22;1741;51.294;8.608;2024-01-11T06:41:11;-10.60;99.90
3454;DHT22;1741;51.294;8.608;2024-01-11T06:43:38;-10.60;99.90
3454;DHT22;1741;51.294;8.608;2024-01-11T06:46:06;-10.60;99.90
3454;DHT22;1741;51.294;8.608;2024-01-11T06:48:33;-10.40;99.90
3454;DHT22;1741;51.294;8.608;2024-01-11T06:51:01;-10.50;99.90
3454;DHT22;1741;51.294;8.608;2024-01-11T06:53:30;-10.50;99.90
3454;DHT22;1741;51.294;8.608;2024-01-11T06:55:58;-10.50;99.90
3454;DHT22;1741;51.294;8.608;2024-01-11T06:58:25;-10.50;99.90
3454;DHT22;1741;51.294;8.608;2024-01-11T07:00:52;-10.40;99.90
3454;DHT22;1741;51.294;8.608;2024-01-11T07:03:20;-10.40;99.90
3454;DHT22;1741;51.294;8.608;2024-01-11T07:05:47;-10.30;99.90
3454;DHT22;1741;51.294;8.608;2024-01-11T07:08:15;-10.20;99.90
3454;DHT22;1741;51.294;8.608;2024-01-11T07:10:42;-10.10;99.90
3454;DHT22;1741;51.294;8.608;2024-01-11T07:13:10;-10.10;99.90
3454;DHT22;1741;51.294;8.608;2024-01-11T07:15:40;-10.10;99.90
3454;DHT22;1741;51.294;8.608;2024-01-11T07:18:07;-10.00;99.90
3454;DHT22;1741;51.294;8.608;2024-01-11T07:20:34;-10.10;99.90
3454;DHT22;1741;51.294;8.608;2024-01-11T07:23:02;-10.10;99.90
3454;DHT22;1741;51.294;8.608;2024-01-11T07:25:30;-10.20;99.90
3454;DHT22;1741;51.294;8.608;2024-01-11T07:27:57;-10.20;99.90
3454;DHT22;1741;51.294;8.608;2024-01-11T07:30:24;-10.10;99.90
3454;DHT22;1741;51.294;8.608;2024-01-11T07:32:52;-9.90;99.90
3454;DHT22;1741;51.294;8.608;2024-01-11T07:35:19;-9.80;99.90
3454;DHT22;1741;51.294;8.608;2024-01-11T07:37:47;-9.60;99.90
3454;DHT22;1741;51.294;8.608;2024-01-11T07:40:15;-9.60;99.90
3454;DHT22;1741;51.294;8.608;2024-01-11T07:42:43;-9.70;99.90
3454;DHT22;1741;51.294;8.608;2024-01-11T07:45:10;-9.70;99.90
3454;DHT22;1741;51.294;8.608;2024-01-11T07:47:39;-9.60;99.90
3454;DHT22;1741;51.294;8.608;2024-01-11T07:50:07;-9.50;99.90
3454;DHT22;1741;51.294;8.608;2024-01-11T07:52:36;-9.50;99.90
3454;DHT22;1741;51.294;8.608;2024-01-11T07:55:05;-9.50;99.90
3454;DHT22;1741;51.294;8.608;2024-01-11T07:57:36;-9.60;99.90
3454;DHT22;1741;51.294;8.608;2024-01-11T08:00:05;-9.50;99.90
3454;DHT22;1741;51.294;8.608;2024-01-11T08:02:41;-9.40;99.90
3454;DHT22;1741;51.294;8.608;2024-01-11T08:05:08;-9.30;99.90
3454;DHT22;1741;51.294;8.608;2024-01-11T08:07:36;-9.30;99.90
3454;DHT22;1741;51.294;8.608;2024-01-11T08:10:03;-9.00;99.90
3454;DHT22;1741;51.294;8.608;2024-01-11T08:12:31;-8.90;99.90
3454;DHT22;1741;51.294;8.608;2024-01-11T08:14:58;-8.90;99.90
3454;DHT22;1741;51.294;8.608;2024-01-11T08:17:27;-8.80;99.90
3454;DHT22;1741;51.294;8.608;2024-01-11T08:19:54;-8.60;99.90
3454;DHT22;1741;51.294;8.608;2024-01-11T08:22:23;-8.50;99.90
3454;DHT22;1741;51.294;8.608;2024-01-11T08:24:53;-8.40;99.90
3454;DHT22;1741;51.294;8.608;2024-01-11T08:27:20;-8.40;99.90
3454;DHT22;1741;51.294;8.608;2024-01-11T08:29:48;-8.30;99.90
3454;DHT22;1741;51.294;8.608;2024-01-11T08:32:16;-8.20;99.90
3454;DHT22;1741;51.294;8.608;2024-01-11T08:34:57;-8.20;99.90
3454;DHT22;1741;51.294;8.608;2024-01-11T08:37:25;-8.10;99.90
3454;DHT22;1741;51.294;8.608;2024-01-11T08:39:52;-7.90;99.90
3454;DHT22;1741;51.294;8.608;2024-01-11T08:42:19;-7.90;99.90
3454;DHT22;1741;51.294;8.608;2024-01-11T08:44:47;-7.80;99.90
3454;DHT22;1741;51.294;8.608;2024-01-11T08:47:15;-7.80;99.90
3454;DHT22;1741;51.294;8.608;2024-01-11T08:49:42;-7.70;99.90
3454;DHT22;1741;51.294;8.608;2024-01-11T08:52:10;-7.70;99.90
3454;DHT22;1741;51.294;8.608;2024-01-11T08:54:38;-7.60;99.90
3454;DHT22;1741;51.294;8.608;2024-01-11T08:57:06;-7.60;99.90
3454;DHT22;1741;51.294;8.608;2024-01-11T08:59:34;-7.50;99.90
3454;DHT22;1741;51.294;8.608;2024-01-11T09:02:01;-7.30;99.90
3454;DHT22;1741;51.294;8.608;2024-01-11T09:04:42;-7.30;99.90
3454;DHT22;1741;51.294;8.608;2024-01-11T09:07:09;-7.20;99.90
3454;DHT22;1741;51.294;8.608;2024-01-11T09:09:36;-6.90;99.90
3454;DHT22;1741;51.294;8.608;2024-01-11T09:12:16;-6.80;99.90
3454;DHT22;1741;51.294;8.608;2024-01-11T09:14:47;-6.70;99.90
3454;DHT22;1741;51.294;8.608;2024-01-11T09:17:14;-6.70;99.90
3454;DHT22;1741;51.294;8.608;2024-01-11T09:19:41;-6.60;99.90
3454;DHT22;1741;51.294;8.608;2024-01-11T09:22:09;-6.50;99.90
3454;DHT22;1741;51.294;8.608;2024-01-11T09:24:40;-6.40;99.90
3454;DHT22;1741;51.294;8.608;2024-01-11T09:27:07;-6.30;99.90
3454;DHT22;1741;51.294;8.608;2024-01-11T09:29:34;-6.10;99.90
3454;DHT22;1741;51.294;8.608;2024-01-11T09:32:01;-5.90;99.90
3454;DHT22;1741;51.294;8.608;2024-01-11T09:34:32;-5.70;99.90
3454;DHT22;1741;51.294;8.608;2024-01-11T09:37:05;-5.70;99.90
3454;DHT22;1741;51.294;8.608;2024-01-11T09:39:32;-5.60;99.90
3454;DHT22;1741;51.294;8.608;2024-01-11T09:42:08;-5.50;99.90
3454;DHT22;1741;51.294;8.608;2024-01-11T09:44:39;-5.40;99.90
3454;DHT22;1741;51.294;8.608;2024-01-11T09:47:10;-5.30;99.90
3454;DHT22;1741;51.294;8.608;2024-01-11T09:49:43;-5.10;99.90
3454;DHT22;1741;51.294;8.608;2024-01-11T09:52:12;-5.00;99.90
3454;DHT22;1741;51.294;8.608;2024-01-11T09:54:42;-4.90;99.90
3454;DHT22;1741;51.294;8.608;2024-01-11T09:57:10;-4.80;99.90
3454;DHT22;1741;51.294;8.608;2024-01-11T09:59:38;-4.60;99.90
3454;DHT22;1741;51.294;8.608;2024-01-11T10:02:11;-4.40;99.90
3454;DHT22;1741;51.294;8.608;2024-01-11T10:04:42;-4.20;99.90
3454;DHT22;1741;51.294;8.608;2024-01-11T10:07:09;-4.00;99.90
3454;DHT22;1741;51.294;8.608;2024-01-11T10:09:37;-3.80;99.90
3454;DHT22;1741;51.294;8.608;2024-01-11T10:12:05;-3.80;99.90
3454;DHT22;1741;51.294;8.608;2024-01-11T10:14:32;-3.80;99.90
3454;DHT22;1741;51.294;8.608;2024-01-11T10:17:00;-3.70;99.90
3454;DHT22;1741;51.294;8.608;2024-01-11T10:19:30;-3.50;99.90
3454;DHT22;1741;51.294;8.608;2024-01-11T10:21:57;-3.30;99.90
3454;DHT22;1741;51.294;8.608;2024-01-11T10:24:27;-3.20;99.90
3454;DHT22;1741;51.294;8.608;2024-01-11T10:26:56;-3.00;99.90
3454;DHT22;1741;51.294;8.608;2024-01-11T10:29:31;-2.80;99.90
3454;DHT22;1741;51.294;8.608;2024-01-11T10:31:59;-2.70;99.90
3454;DHT22;1741;51.294;8.608;2024-01-11T10:34:26;-2.60;99.90
3454;DHT22;1741;51.294;8.608;2024-01-11T10:36:54;-2.50;99.90
3454;DHT22;1741;51.294;8.608;2024-01-11T10:39:25;-2.50;99.90
3454;DHT22;1741;51.294;8.608;2024-01-11T10:42:05;-2.50;99.90
3454;DHT22;1741;51.294;8.608;2024-01-11T10:44:34;-2.30;99.90
3454;DHT22;1741;51.294;8.608;2024-01-11T10:47:03;-2.20;99.90
3454;DHT22;1741;51.294;8.608;2024-01-11T10:49:39;-2.00;99.90
3454;DHT22;1741;51.294;8.608;2024-01-11T10:52:07;-2.00;99.90
3454;DHT22;1741;51.294;8.608;2024-01-11T10:54:36;-2.00;99.90
3454;DHT22;1741;51.294;8.608;2024-01-11T10:57:05;-1.90;99.90
3454;DHT22;1741;51.294;8.608;2024-01-11T10:59:37;-1.90;99.90
3454;DHT22;1741;51.294;8.608;2024-01-11T11:02:08;-1.80;99.90
3454;DHT22;1741;51.294;8.608;2024-01-11T11:04:42;-1.70;99.90
3454;DHT22;1741;51.294;8.608;2024-01-11T11:07:09;-1.60;99.90
3454;DHT22;1741;51.294;8.608;2024-01-11T11:09:38;-1.50;99.90
3454;DHT22;1741;51.294;8.608;2024-01-11T11:12:11;-1.30;99.90
3454;DHT22;1741;51.294;8.608;2024-01-11T11:14:38;-1.30;99.90
3454;DHT22;1741;51.294;8.608;2024-01-11T11:17:05;-1.30;99.90
3454;DHT22;1741;51.294;8.608;2024-01-11T11:19:32;-1.20;99.90
3454;DHT22;1741;51.294;8.608;2024-01-11T11:22:03;-1.10;99.90
3454;DHT22;1741;51.294;8.608;2024-01-11T11:24:34;-1.10;99.90
3454;DHT22;1741;51.294;8.608;2024-01-11T11:27:02;-1.00;99.90
3454;DHT22;1741;51.294;8.608;2024-01-11T11:29:30;-1.00;99.90
3454;DHT22;1741;51.294;8.608;2024-01-11T11:31:58;-0.80;99.90
3454;DHT22;1741;51.294;8.608;2024-01-11T11:34:45;-0.80;99.90
3454;DHT22;1741;51.294;8.608;2024-01-11T11:37:23;-0.80;99.90
3454;DHT22;1741;51.294;8.608;2024-01-11T11:39:52;-0.60;99.90
3454;DHT22;1741;51.294;8.608;2024-01-11T11:42:22;-0.50;99.90
3454;DHT22;1741;51.294;8.608;2024-01-11T11:44:51;-0.40;99.90
3454;DHT22;1741;51.294;8.608;2024-01-11T11:47:22;-0.30;99.90
3454;DHT22;1741;51.294;8.608;2024-01-11T11:50:10;-0.10;99.90
3454;DHT22;1741;51.294;8.608;2024-01-11T11:52:39;0.00;99.90
3454;DHT22;1741;51.294;8.608;2024-01-11T11:55:07;0.10;99.90
3454;DHT22;1741;51.294;8.608;2024-01-11T11:57:35;0.10;99.90
3454;DHT22;1741;51.294;8.608;2024-01-11T12:00:05;0.00;99.90
3454;DHT22;1741;51.294;8.608;2024-01-11T12:02:38;0.00;99.90
3454;DHT22;1741;51.294;8.608;2024-01-11T12:05:06;0.00;99.90
3454;DHT22;1741;51.294;8.608;2024-01-11T12:07:33;0.10;99.90
3454;DHT22;1741;51.294;8.608;2024-01-11T12:10:06;0.20;99.90
3454;DHT22;1741;51.294;8.608;2024-01-11T12:12:36;0.30;99.90
3454;DHT22;1741;51.294;8.608;2024-01-11T12:15:05;0.50;99.90
3454;DHT22;1741;51.294;8.608;2024-01-11T12:17:32;0.50;99.90
3454;DHT22;1741;51.294;8.608;2024-01-11T12:20:00;0.60;99.90
3454;DHT22;1741;51.294;8.608;2024-01-11T12:22:27;0.80;99.90
3454;DHT22;1741;51.294;8.608;2024-01-11T12:24:56;1.00;99.90
3454;DHT22;1741;51.294;8.608;2024-01-11T12:27:24;1.20;99.90
3454;DHT22;1741;51.294;8.608;2024-01-11T12:29:51;1.40;99.90
3454;DHT22;1741;51.294;8.608;2024-01-11T12:32:26;1.60;99.90
3454;DHT22;1741;51.294;8.608;2024-01-11T12:34:54;1.90;99.90
3454;DHT22;1741;51.294;8.608;2024-01-11T12:37:21;2.10;99.90
3454;DHT22;1741;51.294;8.608;2024-01-11T12:39:48;2.30;99.90
3454;DHT22;1741;51.294;8.608;2024-01-11T12:42:16;2.30;99.90
3454;DHT22;1741;51.294;8.608;2024-01-11T12:44:43;2.50;99.90
3454;DHT22;1741;51.294;8.608;2024-01-11T12:47:10;2.70;99.90
3454;DHT22;1741;51.294;8.608;2024-01-11T12:49:43;2.90;99.90
3454;DHT22;1741;51.294;8.608;2024-01-11T12:52:20;3.00;99.90
3454;DHT22;1741;51.294;8.608;2024-01-11T12:54:47;3.10;99.90
3454;DHT22;1741;51.294;8.608;2024-01-11T12:57:19;3.00;99.90
3454;DHT22;1741;51.294;8.608;2024-01-11T12:59:47;2.90;99.90
3454;DHT22;1741;51.294;8.608;2024-01-11T13:02:16;2.90;99.90
3454;DHT22;1741;51.294;8.608;2024-01-11T13:04:44;2.80;99.90
3454;DHT22;1741;51.294;8.608;2024-01-11T13:07:14;2.80;99.90
3454;DHT22;1741;51.294;8.608;2024-01-11T13:09:43;2.80;99.90
3454;DHT22;1741;51.294;8.608;2024-01-11T13:12:11;2.80;99.90
3454;DHT22;1741;51.294;8.608;2024-01-11T13:14:38;3.00;99.90
3454;DHT22;1741;51.294;8.608;2024-01-11T13:17:07;3.10;99.90
3454;DHT22;1741;51.294;8.608;2024-01-11T13:19:34;3.10;99.90
3454;DHT22;1741;51.294;8.608;2024-01-11T13:22:01;2.80;99.90
3454;DHT22;1741;51.294;8.608;2024-01-11T13:24:29;2.80;99.90
3454;DHT22;1741;51.294;8.608;2024-01-11T13:26:56;2.90;99.90
3454;DHT22;1741;51.294;8.608;2024-01-11T13:29:24;3.00;99.90
3454;DHT22;1741;51.294;8.608;2024-01-11T13:31:51;3.10;99.90
3454;DHT22;1741;51.294;8.608;2024-01-11T13:34:18;3.20;99.90
3454;DHT22;1741;51.294;8.608;2024-01-11T13:36:46;3.20;99.90
3454;DHT22;1741;51.294;8.608;2024-01-11T13:39:13;3.10;99.90
3454;DHT22;1741;51.294;8.608;2024-01-11T13:41:40;2.90;99.90
3454;DHT22;1741;51.294;8.608;2024-01-11T13:44:07;2.70;99.90
3454;DHT22;1741;51.294;8.608;2024-01-11T13:46:43;2.40;99.90
3454;DHT22;1741;51.294;8.608;2024-01-11T13:49:10;2.10;99.90
3454;DHT22;1741;51.294;8.608;2024-01-11T13:51:38;2.00;99.90
3454;DHT22;1741;51.294;8.608;2024-01-11T13:54:19;2.00;99.90
3454;DHT22;1741;51.294;8.608;2024-01-11T13:56:46;2.00;99.90
3454;DHT22;1741;51.294;8.608;2024-01-11T13:59:14;2.20;99.90
3454;DHT22;1741;51.294;8.608;2024-01-11T14:01:41;2.10;99.90
3454;DHT22;1741;51.294;8.608;2024-01-11T14:04:08;2.00;99.90
3454;DHT22;1741;51.294;8.608;2024-01-11T14:06:35;2.20;99.90
3454;DHT22;1741;51.294;8.608;2024-01-11T14:09:03;2.00;99.90
3454;DHT22;1741;51.294;8.608;2024-01-11T14:11:34;2.30;99.90
3454;DHT22;1741;51.294;8.608;2024-01-11T14:14:02;2.20;99.90
3454;DHT22;1741;51.294;8.608;2024-01-11T14:16:31;2.10;99.90
3454;DHT22;1741;51.294;8.608;2024-01-11T14:18:58;2.10;99.90
3454;DHT22;1741;51.294;8.608;2024-01-11T14:21:26;2.10;99.90
3454;DHT22;1741;51.294;8.608;2024-01-11T14:23:53;2.30;99.90
3454;DHT22;1741;51.294;8.608;2024-01-11T14:26:20;2.50;99.90
3454;DHT22;1741;51.294;8.608;2024-01-11T14:28:50;2.40;99.90
3454;DHT22;1741;51.294;8.608;2024-01-11T14:31:18;2.50;99.90
3454;DHT22;1741;51.294;8.608;2024-01-11T14:33:46;2.20;99.90
3454;DHT22;1741;51.294;8.608;2024-01-11T14:36:13;2.00;99.90
3454;DHT22;1741;51.294;8.608;2024-01-11T14:38:43;1.60;99.90
3454;DHT22;1741;51.294;8.608;2024-01-11T14:41:14;1.30;99.90
3454;DHT22;1741;51.294;8.608;2024-01-11T14:43:41;1.10;99.90
3454;DHT22;1741;51.294;8.608;2024-01-11T14:46:12;1.00;99.90
3454;DHT22;1741;51.294;8.608;2024-01-11T14:48:41;0.90;99.90
3454;DHT22;1741;51.294;8.608;2024-01-11T14:51:08;0.70;99.90
3454;DHT22;1741;51.294;8.608;2024-01-11T14:53:36;0.60;99.90
3454;DHT22;1741;51.294;8.608;2024-01-11T14:56:03;0.40;99.90
3454;DHT22;1741;51.294;8.608;2024-01-11T14:58:30;0.30;99.90
3454;DHT22;1741;51.294;8.608;2024-01-11T15:00:58;0.00;99.90
3454;DHT22;1741;51.294;8.608;2024-01-11T15:03:25;-0.10;99.90
3454;DHT22;1741;51.294;8.608;2024-01-11T15:05:53;-0.30;99.90
3454;DHT22;1741;51.294;8.608;2024-01-11T15:08:20;-0.50;99.90
3454;DHT22;1741;51.294;8.608;2024-01-11T15:10:48;-0.70;99.90
3454;DHT22;1741;51.294;8.608;2024-01-11T15:13:15;-0.90;99.90
3454;DHT22;1741;51.294;8.608;2024-01-11T15:15:43;-1.10;99.90
3454;DHT22;1741;51.294;8.608;2024-01-11T15:18:10;-1.20;99.90
3454;DHT22;1741;51.294;8.608;2024-01-11T15:20:38;-1.40;99.90
3454;DHT22;1741;51.294;8.608;2024-01-11T15:23:05;-1.50;99.90
3454;DHT22;1741;51.294;8.608;2024-01-11T15:25:32;-1.60;99.90
3454;DHT22;1741;51.294;8.608;2024-01-11T15:27:59;-1.50;99.90
3454;DHT22;1741;51.294;8.608;2024-01-11T15:30:26;-1.60;99.90
3454;DHT22;1741;51.294;8.608;2024-01-11T15:32:54;-1.70;99.90
3454;DHT22;1741;51.294;8.608;2024-01-11T15:35:25;-1.80;99.90
3454;DHT22;1741;51.294;8.608;2024-01-11T15:37:52;-1.90;99.90
3454;DHT22;1741;51.294;8.608;2024-01-11T15:40:21;-2.10;99.90
3454;DHT22;1741;51.294;8.608;2024-01-11T15:42:48;-2.30;99.90
3454;DHT22;1741;51.294;8.608;2024-01-11T15:45:16;-2.40;99.90
3454;DHT22;1741;51.294;8.608;2024-01-11T15:47:43;-2.50;99.90
3454;DHT22;1741;51.294;8.608;2024-01-11T15:50:10;-2.70;99.90
3454;DHT22;1741;51.294;8.608;2024-01-11T15:52:38;-2.90;99.90
3454;DHT22;1741;51.294;8.608;2024-01-11T15:55:06;-2.90;99.90
3454;DHT22;1741;51.294;8.608;2024-01-11T15:57:36;-3.10;99.90
3454;DHT22;1741;51.294;8.608;2024-01-11T16:00:03;-3.20;99.90
3454;DHT22;1741;51.294;8.608;2024-01-11T16:02:38;-3.30;99.90
3454;DHT22;1741;51.294;8.608;2024-01-11T16:05:08;-3.40;99.90